createdAt,value
2023-05-01T00:01:44.661Z,100.00
2023-05-01T00:04:12.588Z,100.00
2023-05-01T00:06:39.245Z,100.00
2023-05-01T00:09:05.767Z,100.00
2023-05-01T00:11:32.245Z,100.00
2023-05-01T00:13:58.699Z,100.00
2023-05-01T00:16:25.313Z,100.00
2023-05-01T00:18:51.821Z,100.00
2023-05-01T00:21:19.702Z,100.00
2023-05-01T00:23:46.209Z,100.00
2023-05-01T00:26:12.697Z,100.00
2023-05-01T00:28:39.168Z,100.00
2023-05-01T00:31:05.634Z,100.00
2023-05-01T00:33:32.130Z,100.00
2023-05-01T00:35:59.706Z,100.00
2023-05-01T00:38:27.536Z,100.00
2023-05-01T00:40:54.087Z,100.00
2023-05-01T00:43:20.739Z,100.00
2023-05-01T00:45:47.519Z,100.00
2023-05-01T00:48:14.938Z,100.00
2023-05-01T00:50:42.348Z,100.00
2023-05-01T00:53:08.910Z,100.00
2023-05-01T00:55:38.577Z,100.00
2023-05-01T00:58:05.680Z,100.00
2023-05-01T01:00:32.187Z,100.00
2023-05-01T01:02:58.813Z,100.00
2023-05-01T01:05:30.216Z,100.00
2023-05-01T01:08:05.644Z,100.00
2023-05-01T01:10:39.787Z,100.00
2023-05-01T01:13:12.737Z,100.00
2023-05-01T01:15:44.555Z,100.00
2023-05-01T01:18:19.103Z,100.00
2023-05-01T01:20:50.093Z,100.00
2023-05-01T01:23:42.983Z,100.00
2023-05-01T01:26:27.515Z,100.00
2023-05-01T01:29:21.929Z,100.00
2023-05-01T01:32:01.129Z,100.00
2023-05-01T01:34:34.159Z,100.00
2023-05-01T01:37:04.701Z,100.00
2023-05-01T01:39:43.451Z,100.00
2023-05-01T01:42:15.547Z,100.00
2023-05-01T01:44:47.859Z,100.00
2023-05-01T01:47:16.503Z,100.00
2023-05-01T01:49:49.418Z,100.00
2023-05-01T01:52:17.760Z,100.00
2023-05-01T01:54:50.326Z,100.00
2023-05-01T01:57:19.403Z,100.00
2023-05-01T01:59:47.407Z,100.00
2023-05-01T02:02:15.858Z,100.00
2023-05-01T02:04:44.169Z,100.00
2023-05-01T02:07:13.635Z,100.00
2023-05-01T02:09:41.388Z,100.00
2023-05-01T02:12:09.780Z,100.00
2023-05-01T02:14:37.669Z,100.00
2023-05-01T02:17:05.076Z,100.00
2023-05-01T02:19:33.382Z,100.00
2023-05-01T02:22:01.153Z,100.00
2023-05-01T02:24:31.118Z,100.00
2023-05-01T02:27:00.707Z,100.00
2023-05-01T02:29:27.264Z,100.00
2023-05-01T02:31:53.987Z,100.00
2023-05-01T02:34:20.563Z,100.00
2023-05-01T02:36:47.072Z,100.00
2023-05-01T02:39:13.603Z,100.00
2023-05-01T02:41:41.937Z,100.00
2023-05-01T02:44:11.210Z,100.00
2023-05-01T02:46:38.770Z,100.00
2023-05-01T02:49:06.312Z,100.00
2023-05-01T02:51:34.125Z,100.00
2023-05-01T02:54:01.072Z,100.00
2023-05-01T02:56:27.703Z,100.00
2023-05-01T02:58:55.771Z,100.00
2023-05-01T03:01:22.723Z,100.00
2023-05-01T03:03:49.296Z,100.00
2023-05-01T03:06:15.874Z,100.00
2023-05-01T03:08:42.388Z,100.00
2023-05-01T03:11:09.171Z,100.00
2023-05-01T03:13:35.730Z,100.00
2023-05-01T03:16:03.925Z,100.00
2023-05-01T03:18:30.448Z,100.00
2023-05-01T03:20:56.992Z,100.00
2023-05-01T03:23:23.604Z,100.00
2023-05-01T03:25:50.314Z,100.00
2023-05-01T03:28:17.035Z,100.00
2023-05-01T03:30:44.355Z,100.00
2023-05-01T03:33:12.260Z,100.00
2023-05-01T03:35:38.919Z,100.00
2023-05-01T03:38:05.592Z,100.00
2023-05-01T03:40:32.284Z,100.00
2023-05-01T03:42:58.789Z,100.00
2023-05-01T03:45:25.277Z,100.00
2023-05-01T03:47:51.819Z,100.00
2023-05-01T03:50:19.729Z,100.00
2023-05-01T03:52:46.185Z,100.00
2023-05-01T03:55:12.694Z,100.00
2023-05-01T03:57:39.169Z,100.00
2023-05-01T04:00:06.833Z,100.00
2023-05-01T04:02:33.486Z,100.00
2023-05-01T04:05:00.031Z,100.00
2023-05-01T04:07:27.949Z,100.00
2023-05-01T04:09:54.754Z,100.00
2023-05-01T04:12:21.379Z,100.00
2023-05-01T04:14:47.881Z,100.00
2023-05-01T04:17:14.392Z,100.00
2023-05-01T04:19:40.924Z,100.00
2023-05-01T04:22:07.404Z,100.00
2023-05-01T04:24:35.275Z,100.00
2023-05-01T04:27:01.840Z,100.00
2023-05-01T04:29:28.337Z,100.00
2023-05-01T04:31:54.909Z,100.00
2023-05-01T04:34:21.429Z,100.00
2023-05-01T04:36:47.879Z,100.00
2023-05-01T04:39:14.361Z,100.00
2023-05-01T04:41:42.188Z,100.00
2023-05-01T04:44:08.651Z,100.00
2023-05-01T04:46:35.161Z,100.00
2023-05-01T04:49:01.693Z,100.00
2023-05-01T04:51:28.204Z,100.00
2023-05-01T04:53:54.686Z,100.00
2023-05-01T04:56:21.200Z,100.00
2023-05-01T04:58:49.019Z,100.00
2023-05-01T05:01:15.569Z,100.00
2023-05-01T05:03:42.270Z,100.00
2023-05-01T05:06:08.997Z,100.00
2023-05-01T05:08:35.533Z,100.00
2023-05-01T05:11:02.045Z,100.00
2023-05-01T05:13:28.735Z,100.00
2023-05-01T05:15:56.609Z,100.00
2023-05-01T05:18:23.236Z,100.00
2023-05-01T05:20:49.902Z,100.00
2023-05-01T05:23:16.489Z,100.00
2023-05-01T05:25:43.083Z,100.00
2023-05-01T05:28:09.587Z,100.00
2023-05-01T05:30:36.075Z,100.00
2023-05-01T05:33:04.188Z,100.00
2023-05-01T05:35:30.776Z,100.00
2023-05-01T05:37:57.339Z,100.00
2023-05-01T05:40:23.827Z,100.00
2023-05-01T05:42:50.325Z,100.00
2023-05-01T05:45:16.927Z,100.00
2023-05-01T05:47:43.629Z,100.00
2023-05-01T05:50:11.695Z,100.00
2023-05-01T05:52:38.192Z,100.00
2023-05-01T05:55:05.727Z,100.00
2023-05-01T05:57:32.205Z,100.00
2023-05-01T05:59:58.895Z,100.00
2023-05-01T06:02:25.556Z,100.00
2023-05-01T06:04:52.146Z,100.00
2023-05-01T06:07:21.651Z,100.00
2023-05-01T06:09:48.086Z,100.00
2023-05-01T06:12:14.595Z,100.00
2023-05-01T06:14:41.500Z,100.00
2023-05-01T06:17:08.679Z,100.00
2023-05-01T06:19:35.269Z,100.00
2023-05-01T06:22:01.780Z,100.00
2023-05-01T06:24:29.682Z,100.00
2023-05-01T06:26:56.172Z,100.00
2023-05-01T06:29:22.671Z,100.00
2023-05-01T06:31:49.213Z,100.00
2023-05-01T06:34:15.987Z,100.00
2023-05-01T06:36:42.453Z,100.00
2023-05-01T06:39:08.951Z,100.00
2023-05-01T06:41:36.826Z,100.00
2023-05-01T06:44:03.443Z,100.00
2023-05-01T06:46:29.979Z,100.00
2023-05-01T06:48:56.511Z,100.00
2023-05-01T06:51:23.026Z,100.00
2023-05-01T06:53:49.495Z,100.00
2023-05-01T06:56:16.016Z,100.00
2023-05-01T06:58:43.858Z,100.00
2023-05-01T07:01:10.591Z,100.00
2023-05-01T07:03:37.203Z,100.00
2023-05-01T07:06:04.144Z,100.00
2023-05-01T07:08:31.600Z,100.00
2023-05-01T07:10:58.186Z,100.00
2023-05-01T07:13:24.912Z,100.00
2023-05-01T07:15:54.436Z,100.00
2023-05-01T07:18:21.226Z,100.00
2023-05-01T07:20:47.711Z,100.00
2023-05-01T07:23:14.200Z,100.00
2023-05-01T07:25:40.710Z,100.00
2023-05-01T07:28:07.340Z,100.00
2023-05-01T07:30:33.922Z,100.00
2023-05-01T07:33:02.028Z,100.00
2023-05-01T07:35:28.798Z,100.00
2023-05-01T07:37:55.604Z,100.00
2023-05-01T07:40:22.104Z,100.00
2023-05-01T07:42:48.722Z,100.00
2023-05-01T07:45:15.293Z,100.00
2023-05-01T07:47:41.861Z,100.00
2023-05-01T07:50:12.093Z,100.00
2023-05-01T07:52:38.661Z,100.00
2023-05-01T07:55:06.057Z,100.00
2023-05-01T07:57:32.693Z,100.00
2023-05-01T07:59:59.645Z,100.00
2023-05-01T08:02:26.386Z,100.00
2023-05-01T08:04:53.100Z,100.00
2023-05-01T08:07:21.539Z,100.00
2023-05-01T08:09:48.040Z,100.00
2023-05-01T08:12:14.523Z,100.00
2023-05-01T08:14:41.032Z,100.00
2023-05-01T08:17:07.564Z,100.00
2023-05-01T08:19:34.700Z,100.00
2023-05-01T08:22:01.220Z,100.00
2023-05-01T08:24:29.444Z,100.00
2023-05-01T08:26:55.976Z,100.00
2023-05-01T08:29:22.467Z,100.00
2023-05-01T08:31:49.073Z,100.00
2023-05-01T08:34:15.648Z,100.00
2023-05-01T08:36:42.192Z,100.00
2023-05-01T08:39:08.690Z,100.00
2023-05-01T08:41:37.989Z,100.00
2023-05-01T08:44:05.191Z,100.00
2023-05-01T08:46:37.588Z,100.00
2023-05-01T08:49:05.807Z,100.00
2023-05-01T08:51:34.714Z,100.00
2023-05-01T08:54:03.376Z,100.00
2023-05-01T08:56:31.067Z,100.00
2023-05-01T08:59:02.014Z,100.00
2023-05-01T09:01:30.130Z,100.00
2023-05-01T09:03:58.124Z,100.00
2023-05-01T09:06:25.180Z,100.00
2023-05-01T09:08:51.672Z,100.00
2023-05-01T09:11:18.300Z,100.00
2023-05-01T09:13:44.805Z,100.00
2023-05-01T09:16:12.888Z,100.00
2023-05-01T09:18:40.018Z,100.00
2023-05-01T09:21:06.895Z,100.00
2023-05-01T09:23:33.602Z,100.00
2023-05-01T09:26:04.059Z,100.00
2023-05-01T09:28:40.390Z,100.00
2023-05-01T09:31:20.720Z,100.00
2023-05-01T09:33:52.116Z,100.00
2023-05-01T09:36:18.611Z,100.00
2023-05-01T09:38:45.395Z,100.00
2023-05-01T09:41:11.928Z,100.00
2023-05-01T09:43:38.970Z,100.00
2023-05-01T09:46:07.509Z,100.00
2023-05-01T09:48:36.139Z,100.00
2023-05-01T09:51:20.207Z,100.00
2023-05-01T09:53:46.676Z,100.00
2023-05-01T09:56:13.375Z,100.00
2023-05-01T09:58:39.902Z,100.00
2023-05-01T10:01:06.529Z,100.00
2023-05-01T10:03:35.575Z,100.00
2023-05-01T10:06:02.512Z,100.00
2023-05-01T10:08:44.377Z,100.00
2023-05-01T10:11:10.904Z,100.00
2023-05-01T10:13:37.464Z,100.00
2023-05-01T10:16:04.278Z,100.00
2023-05-01T10:18:30.973Z,100.00
2023-05-01T10:20:58.895Z,100.00
2023-05-01T10:23:25.642Z,100.00
2023-05-01T10:25:53.055Z,100.00
2023-05-01T10:28:20.533Z,100.00
2023-05-01T10:30:49.154Z,100.00
2023-05-01T10:33:15.992Z,100.00
2023-05-01T10:35:47.834Z,100.00
2023-05-01T10:38:22.112Z,100.00
2023-05-01T10:40:49.401Z,100.00
2023-05-01T10:43:18.359Z,100.00
2023-05-01T10:45:45.497Z,100.00
2023-05-01T11:00:11.654Z,100.00
2023-05-01T11:02:38.174Z,100.00
2023-05-01T11:05:05.137Z,100.00
2023-05-01T11:07:31.763Z,100.00
2023-05-01T11:09:59.656Z,100.00
2023-05-01T11:12:49.184Z,100.00
2023-05-01T11:15:26.394Z,100.00
2023-05-01T11:17:53.359Z,100.00
2023-05-01T11:20:48.447Z,100.00
2023-05-01T11:23:22.863Z,100.00
2023-05-01T11:26:00.926Z,100.00
2023-05-01T11:28:31.391Z,100.00
2023-05-01T11:30:57.889Z,100.00
2023-05-01T11:33:25.110Z,100.00
2023-05-01T11:35:59.707Z,100.00
2023-05-01T11:38:26.189Z,100.00
2023-05-01T11:40:58.061Z,100.00
2023-05-01T11:43:24.557Z,100.00
2023-05-01T11:45:53.333Z,100.00
2023-05-01T11:48:20.927Z,100.00
2023-05-01T11:50:47.453Z,100.00
2023-05-01T11:53:14.988Z,100.00
2023-05-01T11:55:41.594Z,100.00
2023-05-01T11:58:09.519Z,100.00
2023-05-01T12:00:37.770Z,100.00
2023-05-01T12:03:07.100Z,100.00
2023-05-01T12:05:34.981Z,100.00
2023-05-01T12:08:09.836Z,100.00
2023-05-01T12:10:37.925Z,100.00
2023-05-01T12:13:05.484Z,100.00
2023-05-01T12:15:35.613Z,100.00
2023-05-01T12:18:02.682Z,100.00
2023-05-01T12:20:39.487Z,100.00
2023-05-01T12:23:07.180Z,100.00
2023-05-01T12:25:34.523Z,100.00
2023-05-01T12:28:03.069Z,100.00
2023-05-01T12:30:29.754Z,100.00
2023-05-01T12:32:58.319Z,100.00
2023-05-01T12:35:29.694Z,100.00
2023-05-01T12:37:56.494Z,100.00
2023-05-01T12:40:24.522Z,100.00
2023-05-01T12:42:55.604Z,100.00
2023-05-01T12:45:22.176Z,100.00
2023-05-01T12:47:48.788Z,100.00
2023-05-01T12:50:16.950Z,100.00
2023-05-01T12:52:43.769Z,100.00
2023-05-01T12:55:10.843Z,100.00
2023-05-01T12:57:51.465Z,99.63
2023-05-01T13:00:19.392Z,94.38
2023-05-01T13:02:46.186Z,96.45
2023-05-01T13:05:12.748Z,100.00
2023-05-01T13:07:48.160Z,100.00
2023-05-01T13:10:15.512Z,100.00
2023-05-01T13:12:44.576Z,100.00
2023-05-01T13:15:19.589Z,96.70
2023-05-01T13:17:46.145Z,97.33
2023-05-01T13:20:12.721Z,96.59
2023-05-01T13:22:40.926Z,96.52
2023-05-01T13:25:15.503Z,89.66
2023-05-01T13:27:48.271Z,93.88
2023-05-01T13:30:15.571Z,95.11
2023-05-01T13:32:42.228Z,93.65
2023-05-01T13:35:09.427Z,91.51
2023-05-01T13:37:36.223Z,90.70
2023-05-01T13:40:05.021Z,89.47
2023-05-01T13:42:31.679Z,87.85
2023-05-01T13:44:58.240Z,90.14
2023-05-01T13:47:25.608Z,87.50
2023-05-01T13:49:52.257Z,85.84
2023-05-01T13:52:20.261Z,85.24
2023-05-01T13:54:47.913Z,85.91
2023-05-01T13:57:15.940Z,87.72
2023-05-01T13:59:44.229Z,86.77
2023-05-01T14:02:19.031Z,85.58
2023-05-01T14:04:45.586Z,83.79
2023-05-01T14:07:17.030Z,81.62
2023-05-01T14:09:44.505Z,81.95
2023-05-01T14:12:13.206Z,84.69
2023-05-01T14:14:45.056Z,82.47
2023-05-01T14:17:11.602Z,83.85
2023-05-01T14:19:39.248Z,81.82
2023-05-01T14:22:07.609Z,81.04
2023-05-01T14:24:35.895Z,80.76
2023-05-01T14:27:02.924Z,81.17
2023-05-01T14:29:29.611Z,81.31
2023-05-01T14:32:02.475Z,80.44
2023-05-01T14:34:29.310Z,79.97
2023-05-01T14:36:55.971Z,80.53
2023-05-01T14:39:22.555Z,78.60
2023-05-01T14:41:49.134Z,80.70
2023-05-01T14:44:17.805Z,78.25
2023-05-01T14:46:48.214Z,75.22
2023-05-01T14:49:19.824Z,78.52
2023-05-01T14:51:46.428Z,77.47
2023-05-01T14:54:14.013Z,78.35
2023-05-01T14:56:40.745Z,75.24
2023-05-01T14:59:07.325Z,75.81
2023-05-01T15:01:33.898Z,77.82
2023-05-01T15:04:01.940Z,78.33
2023-05-01T15:06:31.382Z,79.78
2023-05-01T15:08:57.963Z,78.90
2023-05-01T15:11:24.440Z,76.72
2023-05-01T15:13:50.984Z,78.32
2023-05-01T15:16:17.544Z,76.81
2023-05-01T15:18:44.079Z,81.20
2023-05-01T15:21:10.698Z,80.60
2023-05-01T15:23:39.656Z,78.96
2023-05-01T15:26:06.208Z,81.20
2023-05-01T15:28:32.692Z,79.96
2023-05-01T15:30:59.134Z,82.10
2023-05-01T15:33:25.658Z,79.49
2023-05-01T15:35:52.195Z,80.21
2023-05-01T15:38:18.684Z,81.01
2023-05-01T15:40:46.535Z,72.82
2023-05-01T15:43:13.091Z,74.18
2023-05-01T15:45:39.706Z,75.39
2023-05-01T15:48:06.466Z,76.63
2023-05-01T15:50:33.003Z,77.98
2023-05-01T15:52:59.527Z,79.84
2023-05-01T15:55:26.025Z,76.23
2023-05-01T15:57:53.832Z,77.14
2023-05-01T16:00:20.375Z,77.83
2023-05-01T16:02:47.018Z,75.50
2023-05-01T16:05:15.738Z,77.68
2023-05-01T16:07:43.613Z,82.18
2023-05-01T16:10:10.649Z,79.45
2023-05-01T16:12:37.195Z,80.09
2023-05-01T16:15:06.099Z,82.71
2023-05-01T16:17:40.077Z,82.06
2023-05-01T16:20:09.885Z,83.38
2023-05-01T16:22:37.851Z,84.02
2023-05-01T16:25:04.739Z,86.66
2023-05-01T16:27:31.251Z,87.90
2023-05-01T16:29:58.081Z,86.32
2023-05-01T16:32:26.579Z,87.97
2023-05-01T16:34:53.112Z,88.47
2023-05-01T16:37:22.175Z,88.80
2023-05-01T16:39:48.672Z,90.87
2023-05-01T16:42:15.222Z,91.58
2023-05-01T16:44:41.884Z,90.75
2023-05-01T16:47:11.461Z,92.65
2023-05-01T16:49:40.959Z,94.52
2023-05-01T16:52:07.528Z,94.02
2023-05-01T16:54:34.009Z,94.44
2023-05-01T16:57:00.689Z,98.27
2023-05-01T16:59:27.155Z,99.93
2023-05-01T17:01:53.706Z,100.00
2023-05-01T17:04:20.264Z,100.00
2023-05-01T17:06:48.455Z,100.00
2023-05-01T17:09:15.022Z,100.00
2023-05-01T17:11:41.540Z,100.00
2023-05-01T17:14:08.038Z,100.00
2023-05-01T17:16:34.677Z,100.00
2023-05-01T17:19:01.177Z,100.00
2023-05-01T17:21:27.803Z,100.00
2023-05-01T17:23:55.620Z,100.00
2023-05-01T17:26:22.119Z,100.00
2023-05-01T17:28:48.701Z,100.00
2023-05-01T17:31:17.229Z,100.00
2023-05-01T17:33:45.195Z,100.00
2023-05-01T17:36:11.764Z,100.00
2023-05-01T17:38:38.420Z,100.00
2023-05-01T17:41:06.294Z,100.00
2023-05-01T17:43:32.830Z,100.00
2023-05-01T17:45:59.319Z,100.00
2023-05-01T17:48:25.860Z,100.00
2023-05-01T17:50:52.290Z,100.00
2023-05-01T17:53:18.743Z,100.00
2023-05-01T17:55:45.253Z,100.00
2023-05-01T17:58:13.109Z,100.00
2023-05-01T18:00:39.611Z,100.00
2023-05-01T18:03:06.295Z,100.00
2023-05-01T18:05:32.944Z,100.00
2023-05-01T18:07:59.441Z,100.00
2023-05-01T18:10:26.553Z,100.00
2023-05-01T18:12:53.107Z,100.00
2023-05-01T18:15:22.803Z,100.00
2023-05-01T18:17:49.773Z,100.00
2023-05-01T18:20:16.463Z,100.00
2023-05-01T18:22:43.027Z,100.00
2023-05-01T18:25:09.894Z,100.00
2023-05-01T18:27:36.463Z,100.00
2023-05-01T18:30:03.078Z,100.00
2023-05-01T18:32:46.108Z,100.00
2023-05-01T18:35:14.060Z,100.00
2023-05-01T18:37:40.776Z,100.00
2023-05-01T18:40:08.543Z,100.00
2023-05-01T18:42:35.181Z,100.00
2023-05-01T18:45:01.737Z,100.00
2023-05-01T18:47:28.259Z,100.00
2023-05-01T18:49:56.234Z,100.00
2023-05-01T18:52:22.805Z,100.00
2023-05-01T18:54:49.308Z,100.00
2023-05-01T18:57:15.830Z,100.00
2023-05-01T18:59:43.654Z,100.00
2023-05-01T19:02:11.352Z,100.00
2023-05-01T19:04:49.297Z,100.00
2023-05-01T19:07:24.560Z,100.00
2023-05-01T19:09:51.109Z,100.00
2023-05-01T19:12:17.701Z,100.00
2023-05-01T19:14:44.299Z,100.00
2023-05-01T19:17:10.809Z,100.00
2023-05-01T19:19:37.310Z,100.00
2023-05-01T19:22:03.800Z,100.00
2023-05-01T19:24:31.604Z,100.00
2023-05-01T19:26:58.110Z,100.00
2023-05-01T19:29:24.653Z,100.00
2023-05-01T19:31:51.299Z,100.00
2023-05-01T19:34:17.789Z,100.00
2023-05-01T19:36:44.265Z,100.00
2023-05-01T19:39:10.722Z,100.00
2023-05-01T19:41:38.586Z,100.00
2023-05-01T19:44:05.402Z,100.00
2023-05-01T19:46:32.190Z,100.00
2023-05-01T19:48:58.672Z,100.00
2023-05-01T19:51:25.143Z,100.00
2023-05-01T19:53:51.637Z,100.00
2023-05-01T19:56:18.207Z,100.00
2023-05-01T19:58:46.031Z,100.00
2023-05-01T20:01:12.612Z,100.00
2023-05-01T20:03:39.134Z,100.00
2023-05-01T20:06:05.781Z,100.00
2023-05-01T20:08:32.353Z,100.00
2023-05-01T20:11:00.021Z,100.00
2023-05-01T20:13:26.520Z,100.00
2023-05-01T20:15:54.346Z,100.00
2023-05-01T20:18:20.856Z,100.00
2023-05-01T20:20:47.449Z,100.00
2023-05-01T20:23:15.756Z,100.00
2023-05-01T20:25:42.800Z,100.00
2023-05-01T20:28:11.007Z,100.00
2023-05-01T20:30:38.136Z,100.00
2023-05-01T20:33:06.251Z,100.00
2023-05-01T20:35:32.795Z,100.00
2023-05-01T20:37:59.319Z,100.00
2023-05-01T20:40:25.967Z,100.00
2023-05-01T20:42:52.753Z,100.00
2023-05-01T20:45:19.249Z,100.00
2023-05-01T20:47:45.830Z,100.00
2023-05-01T20:50:13.659Z,100.00
2023-05-01T20:52:40.180Z,100.00
2023-05-01T20:55:07.663Z,100.00
2023-05-01T20:57:36.620Z,100.00
2023-05-01T21:00:04.089Z,100.00
2023-05-01T21:02:30.808Z,100.00
2023-05-01T21:04:57.359Z,100.00
2023-05-01T21:07:25.167Z,100.00
2023-05-01T21:09:51.642Z,100.00
2023-05-01T21:12:18.122Z,100.00
2023-05-01T21:14:44.602Z,100.00
2023-05-01T21:17:11.969Z,100.00
2023-05-01T21:19:42.542Z,100.00
2023-05-01T21:22:14.715Z,100.00
2023-05-01T21:24:44.581Z,100.00
2023-05-01T21:27:11.321Z,100.00
2023-05-01T21:29:39.006Z,100.00
2023-05-01T21:32:05.718Z,100.00
2023-05-01T21:34:32.499Z,100.00
2023-05-01T21:36:58.976Z,100.00
2023-05-01T21:39:25.775Z,100.00
2023-05-01T21:41:53.769Z,100.00
2023-05-01T21:44:22.270Z,100.00
2023-05-01T21:46:49.509Z,100.00
2023-05-01T21:49:16.069Z,100.00
2023-05-01T21:51:42.609Z,100.00
2023-05-01T21:54:09.094Z,100.00
2023-05-01T21:56:35.745Z,100.00
2023-05-01T21:59:04.896Z,100.00
2023-05-01T22:01:31.797Z,100.00
2023-05-01T22:03:58.534Z,100.00
2023-05-01T22:06:25.110Z,100.00
2023-05-01T22:08:51.877Z,100.00
2023-05-01T22:11:18.574Z,100.00
2023-05-01T22:13:45.045Z,100.00
2023-05-01T22:16:12.966Z,100.00
2023-05-01T22:18:39.527Z,100.00
2023-05-01T22:21:06.000Z,100.00
2023-05-01T22:23:32.543Z,100.00
2023-05-01T22:25:59.046Z,100.00
2023-05-01T22:28:25.622Z,100.00
2023-05-01T22:30:52.183Z,100.00
2023-05-01T22:33:20.053Z,100.00
2023-05-01T22:35:46.519Z,100.00
2023-05-01T22:38:13.028Z,100.00
2023-05-01T22:40:39.529Z,100.00
2023-05-01T22:43:05.997Z,100.00
2023-05-01T22:45:32.491Z,100.00
2023-05-01T22:47:59.016Z,100.00
2023-05-01T22:50:26.929Z,100.00
2023-05-01T22:52:53.393Z,100.00
2023-05-01T22:55:19.847Z,100.00
2023-05-01T22:57:46.369Z,100.00
2023-05-01T23:00:13.771Z,100.00
2023-05-01T23:02:40.713Z,100.00
2023-05-01T23:05:08.035Z,100.00
2023-05-01T23:07:35.855Z,100.00
2023-05-01T23:10:02.550Z,100.00
2023-05-01T23:12:29.201Z,100.00
2023-05-01T23:14:55.713Z,100.00
2023-05-01T23:17:22.267Z,100.00
2023-05-01T23:19:48.782Z,100.00
2023-05-01T23:22:15.345Z,100.00
2023-05-01T23:24:44.674Z,100.00
2023-05-01T23:27:12.665Z,100.00
2023-05-01T23:29:40.334Z,100.00
2023-05-01T23:32:08.606Z,100.00
2023-05-01T23:34:35.691Z,100.00
2023-05-01T23:37:02.191Z,100.00
2023-05-01T23:39:28.713Z,100.00
2023-05-01T23:41:56.597Z,100.00
2023-05-01T23:44:23.172Z,100.00
2023-05-01T23:46:49.813Z,100.00
2023-05-01T23:49:16.331Z,100.00
2023-05-01T23:51:42.879Z,100.00
2023-05-01T23:54:09.433Z,100.00
2023-05-01T23:56:35.924Z,100.00
2023-05-01T23:59:03.877Z,100.00
